aviador You're here:

KLCH Decoded Metar

LAKE CHARLES in LA, USA
Report Time2018-07-16 07:53:00
UTC Time2018-07-16 08:39:27
Flight Rules vfr VFR
Wind240° at 03 kt
W.Decomp.*RWY 23: 3.0 kt HW 0.4 kt RCW
RWY 15: 0.2 kt HW 3.0 kt RCW
W.Rank240° ranks 29
Current wind is below 240° avg. (6.4)
Visibility9999 m
Phenomena:N/A
Clouds:N/A
Expected CloudBase > 800 ft AGL from Temp-Dew spread
CeilingNone
Temp28°C (ISA +13)
Dew Point26°C (89% RH)
Heat Index33.6°C
QNH1017 hPa
Density Alt1,818 ft
Elevation13 ft
Report Wrong Elevation
Raw Report
KLCH 160753Z AUTO 24003KT 10SM CLR 28/26 A3002 RMK AO2 SLP174
T02780256 $=

Extra information for KLCH:More info

Metar Taf Metar & Taf Last 4 Metars F.Rules Stats Wind Profile Meteogram Temp Stats Airport Information Weather charts Add Link Nearby VenuesMetar ALERT Operation Metar Decoded Social comments

AIRNAV info for KLCH